Time;durP1;ratioP1;P1;durP2;ratioP2;P2;SDS_P1;SDS_P2;PMS_P1;PMS_P2;Temp;Humidity;BMP_temperature;BMP_pressure;BME280_temperature;BME280_humidity;BME280_pressure;Samples;Min_cycle;Max_cycle;Signal;HPM_P1;HPM_P2
2021/12/31 00:00:32;;;;;;;8.68;2.47;;;;;;;11.69;94.21;101362.88;2080027;28;45454;-63
2021/12/31 00:01:34;;;;;;;13.75;2.80;;;;;;;11.70;94.36;101363.75;2072985;28;44855;-62
2021/12/31 00:02:36;;;;;;;10.95;3.00;;;;;;;11.68;94.21;101361.09;2071404;28;45606;-63
2021/12/31 00:03:38;;;;;;;11.68;2.88;;;;;;;11.71;93.42;101369.06;2072928;28;45918;-63
2021/12/31 00:04:40;;;;;;;13.20;2.90;;;;;;;11.71;94.32;101363.72;2072726;28;44410;-63
2021/12/31 00:05:43;;;;;;;12.07;2.72;;;;;;;11.71;94.27;101366.41;2072351;28;46391;-64
2021/12/31 00:06:45;;;;;;;11.38;2.70;;;;;;;11.70;93.95;101364.66;2073916;28;20046;-63
2021/12/31 00:07:47;;;;;;;13.77;2.80;;;;;;;11.71;94.20;101370.88;2071767;28;44233;-63
2021/12/31 00:08:54;;;;;;;12.65;2.92;;;;;;;11.71;93.97;101361.03;2074037;28;20092;-63
2021/12/31 00:10:00;;;;;;;9.25;2.40;;;;;;;11.70;94.04;101374.47;2073140;28;29380;-63
2021/12/31 00:11:02;;;;;;;12.73;2.55;;;;;;;11.67;94.52;101370.06;2072651;28;46771;-63
2021/12/31 00:12:07;;;;;;;10.98;2.58;;;;;;;11.66;93.84;101362.91;2072162;28;44714;-63
2021/12/31 00:13:09;;;;;;;11.18;2.53;;;;;;;11.67;93.79;101374.56;2072472;28;45396;-63
2021/12/31 00:14:11;;;;;;;8.40;2.20;;;;;;;11.68;94.32;101371.81;2072063;28;45327;-63
2021/12/31 00:15:16;;;;;;;12.80;2.47;;;;;;;11.69;93.68;101365.53;2072848;28;28602;-63
2021/12/31 00:16:17;;;;;;;12.90;2.75;;;;;;;11.71;93.25;101371.75;2072377;28;44077;-63
2021/12/31 00:17:19;;;;;;;8.98;2.15;;;;;;;11.69;93.64;101368.22;2071969;28;46192;-63
2021/12/31 00:18:21;;;;;;;12.50;2.55;;;;;;;11.68;93.21;101369.13;2072226;28;44295;-63
2021/12/31 00:19:25;;;;;;;12.27;2.80;;;;;;;11.66;93.82;101370.97;2072779;28;46544;-63
2021/12/31 00:20:32;;;;;;;10.68;2.00;;;;;;;11.65;93.34;101379.94;2073715;28;20049;-62
2021/12/31 00:21:36;;;;;;;11.52;2.75;;;;;;;11.65;93.17;101377.25;2072531;28;45796;-63
2021/12/31 00:23:59;;;;;;;9.52;2.20;;;;;;;11.67;93.02;101382.59;2073043;28;31910;-63
2021/12/31 00:25:03;;;;;;;8.75;1.95;;;;;;;11.69;93.49;101376.28;2072650;28;46353;-63
2021/12/31 00:26:04;;;;;;;9.65;2.13;;;;;;;11.68;93.14;101369.13;2072372;28;44565;-63
2021/12/31 00:27:06;;;;;;;11.80;1.95;;;;;;;11.69;92.82;101384.31;2072428;28;44176;-63
2021/12/31 00:28:09;;;;;;;10.73;2.55;;;;;;;11.70;92.67;101383.41;2071107;28;44801;-63
2021/12/31 00:29:11;;;;;;;9.88;2.17;;;;;;;11.69;93.07;101380.75;2071679;28;46007;-63
2021/12/31 00:30:13;;;;;;;13.68;2.30;;;;;;;11.69;93.06;101381.63;2072843;28;20035;-63
2021/12/31 00:31:15;;;;;;;11.18;2.58;;;;;;;11.72;92.89;101384.28;2080000;28;43202;-63
2021/12/31 00:32:18;;;;;;;8.43;2.15;;;;;;;11.70;92.77;101380.75;2071982;28;44298;-63
2021/12/31 00:33:24;;;;;;;11.18;2.17;;;;;;;11.69;92.78;101376.28;2072009;28;44675;-63
2021/12/31 00:34:26;;;;;;;12.05;1.92;;;;;;;11.69;92.51;101378.09;2072807;28;43378;-63
2021/12/31 00:35:29;;;;;;;9.32;2.08;;;;;;;11.68;92.41;101376.31;2072789;28;35905;-63
2021/12/31 00:36:45;;;;;;;10.52;2.20;;;;;;;11.66;93.12;101370.97;2072682;28;45784;-63
2021/12/31 00:37:46;;;;;;;9.75;1.90;;;;;;;11.63;93.21;101368.38;2072634;28;31688;-63
2021/12/31 00:38:48;;;;;;;10.15;2.00;;;;;;;11.61;93.19;101373.75;2072774;28;46244;-63
2021/12/31 00:39:50;;;;;;;12.90;2.17;;;;;;;11.61;93.21;101367.50;2072604;28;44005;-63
2021/12/31 00:40:51;;;;;;;10.70;2.42;;;;;;;11.61;93.31;101370.16;2072639;28;34205;-63
2021/12/31 00:41:53;;;;;;;7.30;2.13;;;;;;;11.61;93.08;101370.16;2072018;28;45791;-63
2021/12/31 00:42:56;;;;;;;12.25;1.95;;;;;;;11.61;93.38;101372.84;2072155;28;43328;-63
2021/12/31 00:44:00;;;;;;;9.13;2.10;;;;;;;11.59;92.82;101370.22;2079999;28;46219;-63
2021/12/31 00:45:05;;;;;;;8.77;2.50;;;;;;;11.61;93.27;101367.50;2079267;28;44450;-63
2021/12/31 00:46:09;;;;;;;11.90;2.63;;;;;;;11.61;92.93;101359.44;2072695;28;27053;-63
2021/12/31 00:47:11;;;;;;;9.63;2.17;;;;;;;11.61;93.24;101367.50;2072547;28;44920;-63
2021/12/31 00:48:13;;;;;;;12.55;2.58;;;;;;;11.60;93.50;101371.09;2071223;28;44306;-63
2021/12/31 00:49:14;;;;;;;8.52;2.30;;;;;;;11.63;92.92;101361.19;2072551;28;46560;-63
2021/12/31 00:50:17;;;;;;;12.73;2.72;;;;;;;11.63;92.69;101373.72;2072310;28;43078;-63
2021/12/31 00:51:19;;;;;;;10.20;2.50;;;;;;;11.61;92.81;101357.66;2072614;28;44340;-63
2021/12/31 00:52:21;;;;;;;8.50;2.47;;;;;;;11.61;92.88;101372.84;2073089;28;28698;-63
2021/12/31 00:53:24;;;;;;;9.02;2.63;;;;;;;11.63;93.04;101363.00;2079139;28;45279;-63
2021/12/31 00:54:25;;;;;;;10.93;2.60;;;;;;;11.63;92.51;101357.63;2079740;28;45129;-63
2021/12/31 00:55:28;;;;;;;9.40;2.50;;;;;;;11.69;92.66;101364.66;2072460;28;44693;-63
2021/12/31 00:56:29;;;;;;;10.93;2.90;;;;;;;11.67;92.75;101358.47;2072744;28;43358;-63
2021/12/31 00:57:32;;;;;;;10.57;2.83;;;;;;;11.68;92.39;101342.31;2072005;28;25697;-63
2021/12/31 00:58:33;;;;;;;11.05;3.20;;;;;;;11.68;92.19;101357.53;2072018;28;42141;-63
2021/12/31 00:59:35;;;;;;;10.70;2.80;;;;;;;11.69;92.22;101352.13;2072584;28;44295;-63
2021/12/31 01:00:37;;;;;;;11.00;2.85;;;;;;;11.70;92.25;101350.31;2071940;28;44840;-63
2021/12/31 01:01:39;;;;;;;9.77;3.15;;;;;;;11.70;92.67;101358.38;2072575;28;44387;-63
2021/12/31 01:02:46;;;;;;;11.52;3.00;;;;;;;11.69;92.50;101344.09;2071286;28;46500;-63
2021/12/31 01:03:50;;;;;;;11.93;3.30;;;;;;;11.70;92.01;101361.06;2073357;28;20049;-63
2021/12/31 01:04:52;;;;;;;12.32;2.83;;;;;;;11.70;91.89;101361.97;2071165;28;45639;-63
2021/12/31 01:05:54;;;;;;;7.35;3.00;;;;;;;11.71;92.19;101362.84;2072557;28;43484;-63
2021/12/31 01:06:57;;;;;;;10.27;3.20;;;;;;;11.72;92.28;101351.19;2072267;28;45215;-63
2021/12/31 01:07:59;;;;;;;7.07;2.78;;;;;;;11.73;92.41;101363.69;2071677;28;46684;-63
2021/12/31 01:09:00;;;;;;;15.80;3.15;;;;;;;11.72;92.05;101353.84;2072778;28;25176;-63
2021/12/31 01:10:04;;;;;;;13.85;3.22;;;;;;;11.72;92.52;101353.84;2072368;28;44326;-62
2021/12/31 01:11:07;;;;;;;11.57;2.92;;;;;;;11.71;92.05;101355.66;2071537;28;43624;-63
2021/12/31 01:12:11;;;;;;;9.75;2.53;;;;;;;11.73;91.56;101352.94;2072373;28;27617;-63
2021/12/31 01:13:23;;;;;;;7.55;2.60;;;;;;;11.74;91.77;101358.28;2079333;28;44490;-63
2021/12/31 01:15:41;;;;;;;8.60;2.20;;;;;;;11.71;92.28;101354.78;2072306;28;45327;-63
2021/12/31 01:16:49;;;;;;;8.80;2.50;;;;;;;11.69;92.75;101349.44;2072179;28;44943;-63
2021/12/31 01:19:54;;;;;;;11.75;2.75;;;;;;;11.69;91.70;101362.88;2073436;28;20940;-63
2021/12/31 01:20:56;;;;;;;11.15;2.50;;;;;;;11.70;92.30;101364.66;2072162;28;45344;-63
2021/12/31 01:21:57;;;;;;;9.70;2.70;;;;;;;11.70;91.68;101363.75;2072082;28;45235;-63
2021/12/31 01:22:59;;;;;;;9.25;2.83;;;;;;;11.68;92.02;101365.56;2072352;28;43288;-63
2021/12/31 01:24:03;;;;;;;11.35;2.83;;;;;;;11.69;92.72;101370.91;2071319;28;45631;-63
2021/12/31 01:25:07;;;;;;;10.70;2.97;;;;;;;11.69;92.21;101368.22;2072825;28;30015;-63
2021/12/31 01:26:09;;;;;;;8.63;2.67;;;;;;;11.69;92.43;101368.22;2079576;28;44285;-63
2021/12/31 01:27:13;;;;;;;11.07;2.63;;;;;;;11.72;91.98;101367.28;2079224;28;46730;-63
2021/12/31 01:28:15;;;;;;;9.05;3.00;;;;;;;11.73;91.42;101371.72;2072107;28;43327;-63
2021/12/31 01:29:16;;;;;;;7.90;2.75;;;;;;;11.74;91.47;101373.50;2071572;28;44140;-63
2021/12/31 01:30:18;;;;;;;9.65;2.60;;;;;;;11.76;91.68;101371.69;2071776;28;44747;-63
2021/12/31 01:31:24;;;;;;;7.68;2.60;;;;;;;11.75;91.44;101367.22;2071395;28;45475;-63
2021/12/31 01:32:26;;;;;;;12.93;2.67;;;;;;;11.72;92.08;101373.53;2072099;28;45373;-63
2021/12/31 01:33:31;;;;;;;12.93;2.53;;;;;;;11.73;91.40;101372.59;2072664;28;29486;-64
2021/12/31 01:34:33;;;;;;;12.43;2.63;;;;;;;11.72;91.43;101365.50;2070889;28;45273;-63
2021/12/31 01:35:35;;;;;;;8.73;2.45;;;;;;;11.74;91.21;101385.13;2072310;28;46069;-64
2021/12/31 01:36:36;;;;;;;6.40;2.08;;;;;;;11.74;91.00;101379.75;2072328;28;29062;-63
2021/12/31 01:37:38;;;;;;;11.57;2.60;;;;;;;11.73;91.91;101379.78;2072262;28;46279;-63
2021/12/31 01:38:40;;;;;;;11.30;2.30;;;;;;;11.76;91.26;101379.72;2072225;28;44820;-62
2021/12/31 01:39:43;;;;;;;9.55;2.50;;;;;;;11.76;91.47;101387.78;2072296;28;45699;-63
2021/12/31 01:40:49;;;;;;;9.13;2.55;;;;;;;11.74;91.17;101369.03;2072438;28;20120;-63
2021/12/31 01:41:51;;;;;;;9.45;2.13;;;;;;;11.74;91.28;101384.25;2072278;28;43873;-63
2021/12/31 01:42:52;;;;;;;9.13;2.17;;;;;;;11.73;91.71;101372.59;2071975;28;44282;-63
2021/12/31 01:43:54;;;;;;;8.57;2.00;;;;;;;11.75;91.45;101388.69;2072270;28;45828;-63
2021/12/31 01:45:00;;;;;;;13.02;2.35;;;;;;;11.73;91.24;101375.28;2072641;28;28610;-63
2021/12/31 01:46:10;;;;;;;9.02;2.00;;;;;;;11.76;90.68;101382.41;2070756;28;46663;-63
2021/12/31 01:47:15;;;;;;;8.57;1.95;;;;;;;11.74;90.64;101395.84;2071754;28;43239;-63
2021/12/31 01:48:26;;;;;;;7.75;2.00;;;;;;;11.76;90.89;101380.59;2071801;28;45461;-63
2021/12/31 01:49:32;;;;;;;9.05;1.85;;;;;;;11.78;90.50;101385.94;2071938;28;44842;-64
2021/12/31 01:50:35;;;;;;;7.88;1.77;;;;;;;11.77;90.73;101394.88;2072404;28;30680;-63
2021/12/31 01:51:37;;;;;;;10.98;1.90;;;;;;;11.76;91.27;101390.47;2070430;28;43924;-63
2021/12/31 01:52:41;;;;;;;8.20;2.03;;;;;;;11.79;90.36;101387.69;2071327;28;44456;-63
2021/12/31 01:53:43;;;;;;;10.57;1.80;;;;;;;11.78;91.06;101385.94;2071605;28;45769;-64
2021/12/31 01:54:47;;;;;;;10.00;1.83;;;;;;;11.77;91.08;101392.19;2071247;28;43336;-63
2021/12/31 01:55:52;;;;;;;7.72;1.83;;;;;;;11.75;90.88;101384.19;2071470;28;34681;-63
2021/12/31 01:56:54;;;;;;;9.80;2.25;;;;;;;11.78;90.79;101389.50;2071107;28;44963;-63
2021/12/31 01:57:56;;;;;;;10.80;2.33;;;;;;;11.79;90.68;101393.97;2072130;28;44681;-63
2021/12/31 01:58:58;;;;;;;8.38;2.15;;;;;;;11.78;90.73;101392.19;2079720;28;31955;-63
2021/12/31 02:00:00;;;;;;;9.02;1.65;;;;;;;11.76;90.94;101388.66;2079381;28;44737;-63
2021/12/31 02:01:04;;;;;;;8.80;1.90;;;;;;;11.75;91.16;101389.53;2071247;28;44948;-63
2021/12/31 02:02:08;;;;;;;9.00;1.80;;;;;;;11.76;90.49;101383.28;2063217;28;46682;-63
2021/12/31 02:03:11;;;;;;;10.13;1.98;;;;;;;11.78;90.57;101386.81;2063150;28;43553;-63
2021/12/31 02:04:13;;;;;;;12.48;1.70;;;;;;;11.79;90.16;101396.66;2064795;28;23821;-63
2021/12/31 02:05:16;;;;;;;15.10;1.85;;;;;;;11.80;90.40;101390.34;2063927;28;46373;-62
2021/12/31 02:06:17;;;;;;;9.15;1.98;;;;;;;11.81;90.14;101394.81;2064977;28;43315;-63
2021/12/31 02:07:19;;;;;;;9.57;1.70;;;;;;;11.80;90.47;101389.47;2072592;28;28736;-63
2021/12/31 02:08:21;;;;;;;15.25;2.40;;;;;;;11.80;90.63;101376.94;2071566;28;45832;-63
2021/12/31 02:09:23;;;;;;;10.15;1.65;;;;;;;11.79;90.72;101391.28;2071828;28;44156;-63
2021/12/31 02:10:26;;;;;;;10.82;2.08;;;;;;;11.78;90.38;101394.84;2071836;28;46229;-63
2021/12/31 02:11:30;;;;;;;8.57;1.80;;;;;;;11.77;91.18;101394.88;2071623;28;44732;-63
2021/12/31 02:12:32;;;;;;;10.40;1.45;;;;;;;11.78;90.19;101397.53;2071876;28;45433;-63
2021/12/31 02:13:36;;;;;;;6.70;1.90;;;;;;;11.80;90.58;101390.34;2072073;28;44660;-63
2021/12/31 02:14:38;;;;;;;6.53;1.73;;;;;;;11.80;90.08;101389.47;2079204;28;45467;-63
2021/12/31 02:15:40;;;;;;;9.02;2.13;;;;;;;11.79;90.62;101388.59;2079170;28;46586;-64
2021/12/31 02:16:42;;;;;;;9.32;2.00;;;;;;;11.79;90.27;101390.38;2070720;28;43406;-63
2021/12/31 02:17:47;;;;;;;10.50;1.85;;;;;;;11.80;90.45;101390.34;2072535;28;32584;-64
2021/12/31 02:18:50;;;;;;;13.15;2.17;;;;;;;11.78;90.34;101386.81;2071746;28;45877;-64
2021/12/31 02:20:04;;;;;;;12.05;1.73;;;;;;;11.77;90.93;101387.75;2071899;28;44417;-63
2021/12/31 02:21:10;;;;;;;13.20;1.88;;;;;;;11.79;90.23;101390.38;2071968;28;45345;-64
2021/12/31 02:22:11;;;;;;;9.48;1.85;;;;;;;11.79;90.47;101388.59;2070931;28;42409;-64
2021/12/31 02:23:25;;;;;;;10.10;1.50;;;;;;;11.79;90.58;101393.06;2071635;28;44067;-64
2021/12/31 02:24:27;;;;;;;10.45;1.83;;;;;;;11.81;90.32;101397.50;2071596;28;45877;-64
2021/12/31 02:25:32;;;;;;;9.00;1.95;;;;;;;11.82;90.15;101383.13;2071834;28;44559;-63
2021/12/31 02:26:34;;;;;;;9.10;1.75;;;;;;;11.84;90.17;101386.69;2069494;28;32380;-64
2021/12/31 02:27:40;;;;;;;7.47;1.48;;;;;;;11.87;89.83;101384.88;2064075;28;43588;-64
2021/12/31 02:28:41;;;;;;;8.60;2.08;;;;;;;11.85;90.24;101388.44;2063605;28;43932;-64
2021/12/31 02:29:43;;;;;;;8.23;1.70;;;;;;;11.87;89.89;101392.91;2064081;28;35964;-63
2021/12/31 02:30:47;;;;;;;12.65;2.38;;;;;;;11.87;89.65;101384.88;2063754;28;43291;-63
2021/12/31 02:31:50;;;;;;;11.40;1.90;;;;;;;11.88;89.86;101381.25;2067549;28;28396;-63
2021/12/31 02:32:55;;;;;;;9.98;1.95;;;;;;;11.88;89.75;101381.25;2071784;28;45995;-64
2021/12/31 02:33:56;;;;;;;6.90;1.38;;;;;;;11.88;89.54;101386.63;2071840;28;45386;-63
2021/12/31 02:34:58;;;;;;;9.18;2.03;;;;;;;11.94;89.31;101378.47;2071476;28;45227;-63
2021/12/31 02:36:04;;;;;;;12.90;2.47;;;;;;;11.93;89.32;101385.63;2071574;28;44718;-63
2021/12/31 02:37:06;;;;;;;8.68;1.83;;;;;;;11.94;89.42;101391.91;2071167;28;45549;-64
2021/12/31 02:38:08;;;;;;;10.77;2.03;;;;;;;11.92;89.70;101389.25;2071889;28;45985;-63
2021/12/31 02:39:10;;;;;;;7.90;1.98;;;;;;;11.92;89.23;101383.00;2071828;28;45375;-63
2021/12/31 02:40:16;;;;;;;8.93;1.60;;;;;;;11.90;90.05;101384.78;2072540;28;20078;-63
2021/12/31 02:41:17;;;;;;;11.25;2.28;;;;;;;11.89;89.59;101377.66;2071664;28;44828;-63
2021/12/31 02:42:19;;;;;;;9.32;1.90;;;;;;;11.85;89.79;101382.22;2070501;28;45634;-63
2021/12/31 02:43:21;;;;;;;12.20;2.60;;;;;;;11.89;89.61;101388.41;2071556;28;45707;-63
2021/12/31 02:44:22;;;;;;;11.68;1.90;;;;;;;11.88;89.94;101386.63;2071397;28;44314;-64
2021/12/31 02:45:30;;;;;;;8.38;1.77;;;;;;;11.88;89.71;101375.88;2071818;28;45369;-64
2021/12/31 02:46:32;;;;;;;8.15;1.70;;;;;;;11.87;90.07;101374.13;2071101;28;43022;-63
2021/12/31 02:47:35;;;;;;;11.02;2.33;;;;;;;11.90;89.87;101379.41;2071427;28;45513;-63
2021/12/31 02:48:37;;;;;;;14.13;2.08;;;;;;;11.87;89.83;101374.13;2071796;28;36165;-64
2021/12/31 02:49:41;;;;;;;11.05;2.08;;;;;;;11.88;89.81;101381.25;2072315;28;45437;-64
2021/12/31 02:50:44;;;;;;;10.40;1.80;;;;;;;11.90;89.62;101374.03;2071952;28;30518;-64
2021/12/31 02:51:46;;;;;;;11.23;1.83;;;;;;;11.93;89.20;101368.66;2071130;28;44441;-64
2021/12/31 02:52:47;;;;;;;10.90;2.28;;;;;;;11.92;88.98;101370.47;2071090;28;45548;-64
2021/12/31 02:53:53;;;;;;;9.18;2.05;;;;;;;11.94;89.06;101370.44;2072419;28;30169;-63
2021/12/31 02:54:59;;;;;;;11.88;1.90;;;;;;;11.93;89.24;101363.28;2079249;28;44391;-64
2021/12/31 02:56:10;;;;;;;10.70;1.83;;;;;;;11.93;89.41;101372.22;2079978;28;20178;-63
2021/12/31 02:57:15;;;;;;;8.02;1.98;;;;;;;11.92;89.67;101372.28;2070671;28;44721;-64
2021/12/31 02:58:16;;;;;;;8.00;2.00;;;;;;;11.90;89.79;101363.31;2072128;28;43912;-63
2021/12/31 02:59:18;;;;;;;11.73;2.22;;;;;;;11.91;89.49;101375.84;2078306;28;46338;-64
2021/12/31 03:00:20;;;;;;;7.47;1.77;;;;;;;11.92;89.52;101365.09;2071800;28;43310;-64
2021/12/31 03:01:21;;;;;;;9.63;1.73;;;;;;;11.91;89.05;101357.06;2071773;28;44380;-64
2021/12/31 03:02:25;;;;;;;10.43;2.00;;;;;;;11.91;89.08;101359.75;2071090;28;44732;-64
2021/12/31 03:03:28;;;;;;;7.95;1.80;;;;;;;11.92;89.06;101353.50;2079345;28;43959;-64
2021/12/31 03:04:31;;;;;;;6.03;1.55;;;;;;;11.92;89.53;101358.84;2078990;28;46642;-63
2021/12/31 03:05:35;;;;;;;11.10;2.17;;;;;;;11.93;89.19;101369.53;2078358;28;44721;-64
2021/12/31 03:06:38;;;;;;;9.30;1.77;;;;;;;11.91;89.32;101360.63;2071148;28;44278;-63
2021/12/31 03:07:45;;;;;;;8.98;1.88;;;;;;;11.90;89.33;101357.94;2078681;28;44664;-64
2021/12/31 03:08:51;;;;;;;9.48;1.70;;;;;;;11.89;89.35;101357.06;2078951;28;43898;-64
2021/12/31 03:09:53;;;;;;;9.30;1.73;;;;;;;11.89;89.03;101356.19;2070883;28;46302;-64
2021/12/31 03:10:58;;;;;;;10.18;1.90;;;;;;;11.91;89.36;101354.38;2072403;28;30490;-64
2021/12/31 03:12:01;;;;;;;8.00;1.67;;;;;;;11.93;88.76;101352.56;2078191;28;43060;-64
2021/12/31 03:13:03;;;;;;;7.68;1.52;;;;;;;11.91;88.89;101352.59;2071450;28;46645;-64
2021/12/31 03:14:06;;;;;;;8.90;1.90;;;;;;;11.89;89.26;101353.50;2071658;28;29402;-64
2021/12/31 03:15:11;;;;;;;10.48;1.50;;;;;;;11.88;89.18;101351.72;2070804;28;45825;-64
2021/12/31 03:16:13;;;;;;;8.10;1.55;;;;;;;11.88;89.60;101358.00;2071395;28;46264;-64
2021/12/31 03:17:15;;;;;;;10.52;1.80;;;;;;;11.88;89.84;101359.78;2071449;28;44669;-64
2021/12/31 03:18:18;;;;;;;7.15;1.90;;;;;;;11.88;89.60;101355.31;2069521;28;45294;-64
2021/12/31 03:19:21;;;;;;;9.98;1.65;;;;;;;11.89;89.25;101351.69;2070914;28;45844;-64
2021/12/31 03:20:36;;;;;;;12.00;1.88;;;;;;;11.89;89.80;101358.88;2070940;28;43127;-64
2021/12/31 03:21:37;;;;;;;9.00;2.28;;;;;;;11.90;89.62;101347.22;2071370;28;44475;-64
2021/12/31 03:22:40;;;;;;;12.10;1.63;;;;;;;11.92;88.90;101361.53;2070251;28;45517;-63
2021/12/31 03:23:42;;;;;;;8.80;1.88;;;;;;;11.89;89.46;101372.28;2071343;28;46922;-64
2021/12/31 03:24:44;;;;;;;6.00;1.52;;;;;;;11.91;88.77;101359.75;2071323;28;44726;-64
2021/12/31 03:25:45;;;;;;;11.07;2.30;;;;;;;11.91;88.88;101360.63;2071358;28;46922;-64
2021/12/31 03:26:47;;;;;;;8.15;1.83;;;;;;;11.92;88.92;101366.91;2071344;28;43821;-63
2021/12/31 03:27:49;;;;;;;9.85;1.70;;;;;;;11.92;89.05;101356.19;2071261;28;44211;-64
2021/12/31 03:28:51;;;;;;;7.55;1.75;;;;;;;11.91;89.65;101349.03;2072897;28;46418;-64
2021/12/31 03:29:53;;;;;;;10.50;1.67;;;;;;;11.91;89.25;101366.00;2080538;28;43363;-64
2021/12/31 03:30:55;;;;;;;10.43;2.10;;;;;;;11.90;89.73;101358.88;2080402;28;45495;-64
2021/12/31 03:31:57;;;;;;;8.70;2.10;;;;;;;11.90;89.59;101361.56;2072335;28;46276;-64
2021/12/31 03:32:59;;;;;;;7.97;1.73;;;;;;;11.92;89.42;101348.13;2065179;28;32381;-63
2021/12/31 03:34:01;;;;;;;7.88;2.00;;;;;;;11.93;88.94;101358.78;2064280;28;46587;-64
2021/12/31 03:35:03;;;;;;;9.10;1.98;;;;;;;11.95;89.45;101353.41;2064639;28;44629;-64
2021/12/31 03:36:05;;;;;;;7.47;1.85;;;;;;;11.94;89.15;101355.22;2064596;28;45118;-64
2021/12/31 03:37:06;;;;;;;9.38;1.92;;;;;;;11.99;88.89;101360.50;2064306;28;47661;-64
2021/12/31 03:38:09;;;;;;;9.82;2.30;;;;;;;12.00;89.01;101354.19;2072797;28;30192;-64
2021/12/31 03:39:11;;;;;;;8.85;2.53;;;;;;;12.00;89.11;101359.56;2073023;28;45567;-64
2021/12/31 03:40:13;;;;;;;6.07;1.88;;;;;;;11.99;88.81;101357.81;2080239;28;45869;-64
2021/12/31 03:41:15;;;;;;;11.05;2.10;;;;;;;11.98;88.94;101362.25;2080188;28;42949;-64
2021/12/31 03:42:18;;;;;;;8.13;1.77;;;;;;;11.99;88.91;101357.81;2079409;28;44935;-63
2021/12/31 03:43:19;;;;;;;6.07;1.80;;;;;;;11.98;89.42;101353.34;2072825;28;44764;-64
2021/12/31 03:44:21;;;;;;;5.95;2.10;;;;;;;12.02;89.14;101352.34;2072888;28;43076;-64
2021/12/31 03:45:24;;;;;;;12.02;3.05;;;;;;;12.01;88.89;101350.59;2072696;28;44674;-64
2021/12/31 03:46:26;;;;;;;8.60;2.28;;;;;;;12.02;88.99;101344.28;2073503;28;27411;-64
2021/12/31 03:47:30;;;;;;;11.75;2.92;;;;;;;12.01;89.04;101350.59;2072277;28;44586;-64
2021/12/31 03:48:32;;;;;;;8.48;2.67;;;;;;;12.01;89.40;101340.75;2072386;28;44465;-64
2021/12/31 03:49:33;;;;;;;10.38;2.70;;;;;;;12.02;89.02;101336.25;2072660;28;45705;-64
2021/12/31 03:50:35;;;;;;;6.88;2.35;;;;;;;12.01;88.77;101335.38;2072848;28;45716;-64
2021/12/31 03:51:39;;;;;;;6.35;2.38;;;;;;;12.05;88.93;101346.03;2072906;28;46560;-64
2021/12/31 03:52:41;;;;;;;6.40;2.30;;;;;;;12.04;88.83;101337.09;2080340;28;46532;-64
2021/12/31 03:53:43;;;;;;;7.20;1.90;;;;;;;12.02;89.11;101336.25;2078832;28;44706;-64
2021/12/31 03:54:45;;;;;;;7.38;2.28;;;;;;;12.05;89.30;101329.94;2072537;28;43398;-64
2021/12/31 03:55:47;;;;;;;6.32;2.22;;;;;;;12.04;88.96;101337.09;2073089;28;44704;-64
2021/12/31 03:56:49;;;;;;;10.10;2.80;;;;;;;12.06;88.73;101348.69;2072627;28;44315;-64
2021/12/31 03:57:51;;;;;;;7.78;2.70;;;;;;;12.07;88.66;101339.72;2072672;28;45641;-64
2021/12/31 03:58:55;;;;;;;11.50;3.20;;;;;;;12.08;88.82;101341.50;2071744;28;46135;-63
2021/12/31 03:59:57;;;;;;;11.43;3.35;;;;;;;12.08;88.66;101337.91;2072406;28;46522;-64
2021/12/31 04:00:58;;;;;;;10.73;2.83;;;;;;;12.09;88.77;101334.31;2072478;28;46438;-63
2021/12/31 04:02:00;;;;;;;7.57;2.60;;;;;;;12.08;89.06;101338.81;2072816;28;44633;-64
2021/12/31 04:03:09;;;;;;;11.55;2.70;;;;;;;12.06;89.45;101343.34;2073712;28;20121;-64
2021/12/31 04:04:12;;;;;;;9.15;2.72;;;;;;;12.07;89.41;101334.34;2072798;28;44344;-64
2021/12/31 04:05:14;;;;;;;7.40;3.00;;;;;;;12.08;88.70;101335.22;2071951;28;45316;-64
2021/12/31 04:06:16;;;;;;;8.10;2.80;;;;;;;12.10;88.41;101322.66;2072536;28;45324;-64
2021/12/31 04:07:19;;;;;;;9.93;3.15;;;;;;;12.08;88.48;101330.75;2072808;28;42373;-64
2021/12/31 04:08:21;;;;;;;9.38;3.25;;;;;;;12.09;88.56;101332.50;2073241;28;28014;-64
2021/12/31 04:09:23;;;;;;;6.38;3.00;;;;;;;12.12;88.70;101347.66;2072161;28;43479;-64
2021/12/31 04:10:25;;;;;;;9.25;3.10;;;;;;;12.11;88.92;101330.66;2071160;28;44943;-64
2021/12/31 04:11:27;;;;;;;8.95;3.50;;;;;;;12.13;88.63;101341.38;2064477;28;45151;-64
2021/12/31 04:12:29;;;;;;;13.10;3.33;;;;;;;12.15;88.69;101329.69;2064059;28;42124;-64
2021/12/31 04:13:31;;;;;;;8.18;2.78;;;;;;;12.17;88.79;101332.34;2064720;28;45504;-64
2021/12/31 04:14:32;;;;;;;5.50;2.80;;;;;;;12.16;88.42;101334.13;2064285;28;45674;-64
2021/12/31 04:15:34;;;;;;;9.43;3.17;;;;;;;12.20;88.62;101332.25;2064510;28;45509;-64
2021/12/31 04:16:36;;;;;;;10.43;3.45;;;;;;;12.18;88.27;101331.41;2064516;28;45258;-64
2021/12/31 04:17:40;;;;;;;7.50;2.72;;;;;;;12.18;88.34;101336.78;2065755;28;20978;-64
2021/12/31 04:18:42;;;;;;;7.90;3.08;;;;;;;12.19;88.22;101336.75;2065818;28;45588;-64
2021/12/31 04:19:44;;;;;;;9.02;3.20;;;;;;;12.17;88.74;101338.59;2073200;28;30669;-64
2021/12/31 04:20:48;;;;;;;8.55;3.33;;;;;;;12.20;88.56;101324.19;2072547;28;44733;-64
2021/12/31 04:21:50;;;;;;;9.60;3.10;;;;;;;12.22;88.35;101341.16;2072782;28;44039;-64
2021/12/31 04:22:57;;;;;;;7.97;3.17;;;;;;;12.23;88.06;101335.75;2072764;28;44662;-64
2021/12/31 04:24:15;;;;;;;7.57;3.30;;;;;;;12.25;88.21;101329.47;2071557;28;44728;-64
2021/12/31 04:25:18;;;;;;;9.48;3.10;;;;;;;12.27;88.23;101335.69;2072470;28;45207;-64
2021/12/31 04:26:19;;;;;;;9.82;2.80;;;;;;;12.27;87.76;101323.13;2072563;28;42129;-64
2021/12/31 04:27:22;;;;;;;9.50;2.95;;;;;;;12.26;88.22;101323.16;2072716;28;43424;-64
2021/12/31 04:28:26;;;;;;;6.57;2.85;;;;;;;12.25;87.79;101332.16;2080237;28;44851;-64
2021/12/31 04:29:27;;;;;;;8.48;3.22;;;;;;;12.27;87.95;101322.25;2078840;28;44302;-65
2021/12/31 04:30:29;;;;;;;7.40;3.13;;;;;;;12.29;88.31;101320.41;2072366;28;44962;-64
2021/12/31 04:31:31;;;;;;;6.22;2.58;;;;;;;12.27;87.76;101319.56;2072562;28;44748;-64
2021/12/31 04:32:32;;;;;;;6.50;2.80;;;;;;;12.27;87.94;101319.56;2072287;28;45677;-64
2021/12/31 04:33:36;;;;;;;6.30;2.90;;;;;;;12.29;87.51;101313.28;2072411;28;47187;-64
2021/12/31 04:34:38;;;;;;;6.45;2.95;;;;;;;12.31;87.72;101316.78;2071486;28;44287;-64
2021/12/31 04:35:39;;;;;;;7.60;3.33;;;;;;;12.29;87.85;101315.06;2072736;28;45390;-64
2021/12/31 04:36:41;;;;;;;7.68;2.53;;;;;;;12.28;87.88;101318.66;2073078;28;44761;-64
2021/12/31 04:37:43;;;;;;;7.57;3.00;;;;;;;12.27;88.14;101324.94;2072391;28;47555;-64
2021/12/31 04:38:44;;;;;;;7.20;2.60;;;;;;;12.26;88.03;101320.47;2072758;28;29322;-64
2021/12/31 04:39:46;;;;;;;5.10;2.65;;;;;;;12.26;87.83;101318.72;2070936;28;44774;-64
2021/12/31 04:40:48;;;;;;;7.47;2.92;;;;;;;12.26;88.63;101323.16;2071292;28;46678;-64
2021/12/31 04:41:50;;;;;;;5.95;2.92;;;;;;;12.23;88.52;101327.69;2072506;28;43365;-64
2021/12/31 04:42:51;;;;;;;8.57;3.45;;;;;;;12.23;88.25;101342.94;2072088;28;44234;-64
2021/12/31 04:43:53;;;;;;;8.20;2.78;;;;;;;12.27;88.11;101320.44;2072130;28;45347;-64
2021/12/31 04:44:55;;;;;;;6.32;2.80;;;;;;;12.27;88.03;101341.06;2071636;28;44860;-64
2021/12/31 04:45:56;;;;;;;5.15;2.55;;;;;;;12.27;88.34;101339.25;2072451;28;44445;-64
2021/12/31 04:46:58;;;;;;;6.38;2.80;;;;;;;12.28;87.85;101337.47;2072423;28;44577;-64
2021/12/31 04:48:01;;;;;;;6.57;3.20;;;;;;;12.31;87.51;101329.31;2072536;28;45010;-65
2021/12/31 04:49:06;;;;;;;7.72;2.95;;;;;;;12.29;87.89;101325.78;2072193;28;46564;-64
2021/12/31 04:50:09;;;;;;;6.60;2.72;;;;;;;12.30;88.15;101330.25;2071422;28;43154;-64
2021/12/31 04:51:11;;;;;;;7.25;3.17;;;;;;;12.31;87.74;101329.31;2072434;28;44173;-64
2021/12/31 04:52:13;;;;;;;5.53;3.28;;;;;;;12.32;87.56;101331.09;2072562;28;45700;-65
2021/12/31 04:53:17;;;;;;;6.00;2.95;;;;;;;12.30;87.79;101332.94;2072418;28;44335;-64
2021/12/31 04:54:19;;;;;;;7.47;3.17;;;;;;;12.33;87.90;101331.06;2071902;28;44329;-64
2021/12/31 04:55:20;;;;;;;4.72;3.10;;;;;;;12.31;88.08;101332.00;2071995;28;43621;-64
2021/12/31 04:56:22;;;;;;;7.65;3.08;;;;;;;12.33;87.62;101332.88;2072175;28;44356;-64